createdAt,value
2023-03-27T00:00:49.863Z,98710.58
2023-03-27T00:02:54.991Z,98712.33
2023-03-27T00:05:00.184Z,98709.2
2023-03-27T00:07:05.266Z,98704.15
2023-03-27T00:09:10.304Z,98698.64
2023-03-27T00:11:15.285Z,98702.14
2023-03-27T00:13:20.284Z,98703.61
2023-03-27T00:15:25.295Z,98703.45
2023-03-27T00:17:30.338Z,98702.48
2023-03-27T00:19:35.403Z,98699.56
2023-03-27T00:21:40.417Z,98694.3
2023-03-27T00:23:45.518Z,98692.28
2023-03-27T00:25:50.507Z,98690.56
2023-03-27T00:27:55.569Z,98686.86
2023-03-27T00:30:00.611Z,98691.52
2023-03-27T00:32:05.645Z,98692.77
2023-03-27T00:34:10.608Z,98687.67
2023-03-27T00:36:15.605Z,98684.31
2023-03-27T00:38:20.647Z,98685.89
2023-03-27T00:40:25.620Z,98684.53
2023-03-27T00:42:30.607Z,98681.22
2023-03-27T00:44:36.842Z,98683.71
2023-03-27T00:46:43.751Z,98682.01
2023-03-27T00:48:48.814Z,98683.14
2023-03-27T00:50:53.941Z,98686.89
2023-03-27T00:52:59.417Z,98683.48
2023-03-27T00:55:04.412Z,98681.27
2023-03-27T00:57:09.514Z,98675.98
2023-03-27T00:59:14.645Z,98673.59
2023-03-27T01:01:19.819Z,98670.56
2023-03-27T01:03:25.047Z,98671.53
2023-03-27T01:05:30.248Z,98674.36
2023-03-27T01:07:35.247Z,98677.96
2023-03-27T01:09:40.323Z,98672.17
2023-03-27T01:11:45.343Z,98670.3
2023-03-27T01:13:50.328Z,98671.77
2023-03-27T01:15:55.314Z,98671.55
2023-03-27T01:18:00.462Z,98671.69
2023-03-27T01:20:05.513Z,98669.59
2023-03-27T01:22:10.485Z,98662.17
2023-03-27T01:24:15.582Z,98658.15
2023-03-27T01:26:37.343Z,98657.08
2023-03-27T01:28:42.362Z,98656.06
2023-03-27T01:30:47.312Z,98656.68
2023-03-27T01:32:52.468Z,98654.93
2023-03-27T01:35:04.147Z,98660.2
2023-03-27T01:37:09.914Z,98658.08
2023-03-27T01:39:14.905Z,98655.7
2023-03-27T01:41:19.938Z,98661.3
2023-03-27T01:43:24.926Z,98663.44
2023-03-27T01:45:29.937Z,98663.89
2023-03-27T01:47:35.094Z,98662.33
2023-03-27T01:49:40.189Z,98668.13
2023-03-27T01:51:45.188Z,98666.41
2023-03-27T01:53:50.264Z,98671.39
2023-03-27T01:55:55.352Z,98668.16
2023-03-27T01:58:00.424Z,98666
2023-03-27T02:00:20.369Z,98664.69
2023-03-27T02:02:25.523Z,98661.97
2023-03-27T02:04:30.632Z,98660.91
2023-03-27T02:06:35.771Z,98664.36
2023-03-27T02:08:40.789Z,98664
2023-03-27T02:10:45.776Z,98662.26
2023-03-27T02:12:50.749Z,98663.96
2023-03-27T02:14:55.725Z,98659.8
2023-03-27T02:17:26.552Z,98666.85
2023-03-27T02:19:31.643Z,98669.31
2023-03-27T02:21:36.604Z,98675.72
2023-03-27T02:23:41.714Z,98674.84
2023-03-27T02:25:46.748Z,98681.05
2023-03-27T02:27:51.722Z,98682.97
2023-03-27T02:29:56.682Z,98689.28
2023-03-27T02:32:01.750Z,98687.73
2023-03-27T02:34:06.855Z,98690.66
2023-03-27T02:36:12.681Z,98690.99
2023-03-27T02:38:17.765Z,98694.39
2023-03-27T02:40:22.761Z,98699.5
2023-03-27T02:42:27.768Z,98707.38
2023-03-27T02:44:32.734Z,98711.2
2023-03-27T02:46:37.721Z,98707.27
2023-03-27T02:48:42.748Z,98707.95
2023-03-27T02:50:47.725Z,98717.3
2023-03-27T02:52:52.706Z,98715.95
2023-03-27T02:54:57.672Z,98718.58
2023-03-27T02:57:02.701Z,98718.91
2023-03-27T02:59:07.828Z,98728.06
2023-03-27T03:01:12.918Z,98729.92
2023-03-27T03:03:18.241Z,98735.03
2023-03-27T03:05:23.561Z,98739.12
2023-03-27T03:07:28.527Z,98741.09
2023-03-27T03:09:33.505Z,98746.48
2023-03-27T03:11:45.320Z,98756.47
2023-03-27T03:13:50.405Z,98752.88
2023-03-27T03:15:55.405Z,98760.7
2023-03-27T03:18:00.531Z,98761.96
2023-03-27T03:20:05.606Z,98765.66
2023-03-27T03:22:10.577Z,98761.58
2023-03-27T03:24:15.533Z,98771.38
2023-03-27T03:26:20.619Z,98771.25
2023-03-27T03:28:25.584Z,98776.97
2023-03-27T03:30:30.569Z,98777.19
2023-03-27T03:32:35.739Z,98787.14
2023-03-27T03:34:40.729Z,98791.17
2023-03-27T03:38:03.480Z,98809.36
2023-03-27T03:40:08.603Z,98813.28
2023-03-27T03:42:24.514Z,98813.3
2023-03-27T03:44:29.542Z,98818.2
2023-03-27T03:46:34.663Z,98820.84
2023-03-27T03:48:39.773Z,98823.06
2023-03-27T03:50:44.725Z,98827.77
2023-03-27T03:52:49.714Z,98832.34
2023-03-27T03:54:54.767Z,98842.84
2023-03-27T03:57:00.073Z,98850.43
2023-03-27T03:59:05.367Z,98848.59
2023-03-27T04:01:10.361Z,98856.69
2023-03-27T04:03:15.573Z,98855.55
2023-03-27T04:05:20.861Z,98858.41
2023-03-27T04:07:25.967Z,98855.28
2023-03-27T04:09:30.930Z,98859.03
2023-03-27T04:11:35.907Z,98855.99
2023-03-27T04:13:40.926Z,98867.5
2023-03-27T04:15:46.035Z,98861.68
2023-03-27T04:17:51.496Z,98870.44
2023-03-27T04:19:56.626Z,98875.56
2023-03-27T04:22:01.561Z,98888.25
2023-03-27T04:24:06.550Z,98891.77
2023-03-27T04:26:11.606Z,98897.8
2023-03-27T04:28:16.703Z,98898.45
2023-03-27T04:30:21.756Z,98902.14
2023-03-27T04:32:26.897Z,98905.05
2023-03-27T04:34:31.953Z,98908.61
2023-03-27T04:36:37.066Z,98914.91
2023-03-27T04:38:42.093Z,98917.37
2023-03-27T04:40:47.062Z,98909.44
2023-03-27T04:42:52.099Z,98906.83
2023-03-27T04:44:57.106Z,98915.61
2023-03-27T04:47:02.276Z,98916.55
2023-03-27T04:49:07.476Z,98923.34
2023-03-27T04:51:12.582Z,98930.66
2023-03-27T04:53:17.651Z,98931.84
2023-03-27T04:55:22.639Z,98935.33
2023-03-27T04:57:27.627Z,98943.84
2023-03-27T04:59:32.657Z,98937.22
2023-03-27T05:01:37.761Z,98948.07
2023-03-27T05:03:43.110Z,98957.59
2023-03-27T05:05:48.159Z,98956.08
2023-03-27T05:07:53.182Z,98957.82
2023-03-27T05:09:58.201Z,98967.81
2023-03-27T05:12:03.215Z,98967.68
2023-03-27T05:14:08.202Z,98975.95
2023-03-27T05:16:13.346Z,98978.08
2023-03-27T05:18:18.619Z,98992.1
2023-03-27T05:20:23.780Z,98988.83
2023-03-27T05:22:28.826Z,98993.72
2023-03-27T05:24:33.858Z,98999.44
2023-03-27T05:26:39.927Z,99004.27
2023-03-27T05:28:44.907Z,99004.3
2023-03-27T05:30:50.076Z,99011.17
2023-03-27T05:32:55.244Z,99019.64
2023-03-27T05:35:00.308Z,99028.63
2023-03-27T05:37:05.345Z,99027.27
2023-03-27T05:39:10.523Z,99034.41
2023-03-27T05:41:15.641Z,99037
2023-03-27T05:43:20.652Z,99049.83
2023-03-27T05:45:25.791Z,99057.31
2023-03-27T05:47:30.901Z,99069.52
2023-03-27T05:49:36.084Z,99079.03
2023-03-27T05:51:48.133Z,99087.67
2023-03-27T05:53:53.168Z,99095.95
2023-03-27T05:56:04.585Z,99097.77
2023-03-27T05:58:09.649Z,99109.2
2023-03-27T06:00:14.662Z,99114.77
2023-03-27T06:02:22.521Z,99116.13
2023-03-27T06:04:27.897Z,99123
2023-03-27T06:06:32.875Z,99122.95
2023-03-27T06:08:40.317Z,99134.58
2023-03-27T06:10:45.309Z,99138.45
2023-03-27T06:12:50.443Z,99137.7
2023-03-27T06:14:55.635Z,99158.64
2023-03-27T06:17:00.651Z,99148.27
2023-03-27T06:19:05.763Z,99155.02
2023-03-27T06:21:10.777Z,99156.77
2023-03-27T06:23:15.916Z,99160.81
2023-03-27T06:25:20.998Z,99170.55
2023-03-27T06:27:26.014Z,99179.86
2023-03-27T06:29:31.060Z,99179.59
2023-03-27T06:31:36.201Z,99187.59
2023-03-27T06:33:41.394Z,99188.75
2023-03-27T06:35:54.343Z,99191.25
2023-03-27T06:37:59.591Z,99191.55
2023-03-27T06:40:04.642Z,99199.91
2023-03-27T06:42:09.719Z,99202.8
2023-03-27T06:44:15.031Z,99211.84
2023-03-27T06:46:20.095Z,99209.25
2023-03-27T06:48:25.976Z,99214.31
2023-03-27T06:50:31.141Z,99218.36
2023-03-27T06:52:36.132Z,99217.3
2023-03-27T06:54:41.118Z,99217.11
2023-03-27T06:56:46.154Z,99218.69
2023-03-27T06:58:51.115Z,99224.59
2023-03-27T07:00:56.155Z,99226.14
2023-03-27T07:03:01.264Z,99226.55
2023-03-27T07:05:07.049Z,99232.34
2023-03-27T07:07:12.318Z,99234.03
2023-03-27T07:09:17.394Z,99233.39
2023-03-27T07:11:22.507Z,99233.8
2023-03-27T07:13:27.561Z,99237.84
2023-03-27T07:15:32.548Z,99237.8
2023-03-27T07:17:49.890Z,99240.81
2023-03-27T07:19:55.307Z,99246.94
2023-03-27T07:22:00.358Z,99251.59
2023-03-27T07:24:05.363Z,99264.83
2023-03-27T07:26:10.496Z,99262.27
2023-03-27T07:28:15.480Z,99267.06
2023-03-27T07:30:20.566Z,99269.78
2023-03-27T07:32:38.185Z,99272.47
2023-03-27T07:34:43.538Z,99271.95
2023-03-27T07:36:48.537Z,99273.64
2023-03-27T07:38:53.887Z,99275.03
2023-03-27T07:40:59.060Z,99275.43
2023-03-27T07:43:04.045Z,99277.16
2023-03-27T07:45:09.083Z,99286.06
2023-03-27T07:47:14.114Z,99290.52
2023-03-27T07:49:19.108Z,99295.03
2023-03-27T07:51:43.088Z,99297.61
2023-03-27T07:53:48.104Z,99303.55
2023-03-27T07:55:53.110Z,99302.8
2023-03-27T07:58:04.192Z,99310.69
2023-03-27T08:00:09.398Z,99308.13
2023-03-27T08:02:14.531Z,99308.62
2023-03-27T08:04:19.776Z,99306.41
2023-03-27T08:06:25.156Z,99312.02
2023-03-27T08:08:30.292Z,99319.65
2023-03-27T08:10:35.296Z,99323.34
2023-03-27T08:12:40.341Z,99323.86
2023-03-27T08:14:45.362Z,99319.3
2023-03-27T08:16:50.891Z,99330.92
2023-03-27T08:18:56.177Z,99335.3
2023-03-27T08:21:01.259Z,99334.38
2023-03-27T08:23:06.395Z,99337.29
2023-03-27T08:25:11.756Z,99350.3
2023-03-27T08:27:16.776Z,99340.67
2023-03-27T08:29:21.866Z,99338.63
2023-03-27T08:31:27.243Z,99346.56
2023-03-27T08:33:32.444Z,99344.58
2023-03-27T08:35:37.644Z,99344.38
2023-03-27T08:37:42.857Z,99349.39
2023-03-27T08:39:47.914Z,99351.06
2023-03-27T08:41:53.210Z,99351.88
2023-03-27T08:43:58.247Z,99350.69
2023-03-27T08:46:03.463Z,99349.11
2023-03-27T08:48:08.837Z,99353.09
2023-03-27T08:50:13.947Z,99360.33
2023-03-27T08:52:18.940Z,99360.13
2023-03-27T08:54:23.969Z,99363.27
2023-03-27T08:56:28.977Z,99361.27
2023-03-27T08:58:33.992Z,99359.8
2023-03-27T09:00:39.030Z,99368.36
2023-03-27T09:02:44.225Z,99366.06
2023-03-27T09:04:49.570Z,99367.8
2023-03-27T09:06:54.551Z,99374.3
2023-03-27T09:08:59.582Z,99380.61
2023-03-27T09:11:04.935Z,99380.3
2023-03-27T09:13:10.216Z,99387.42
2023-03-27T09:15:15.538Z,99385.88
2023-03-27T09:17:20.572Z,99388.87
2023-03-27T09:19:25.554Z,99389.03
2023-03-27T09:21:30.617Z,99399.55
2023-03-27T09:23:35.615Z,99396.59
2023-03-27T09:25:40.628Z,99401.34
2023-03-27T09:27:45.669Z,99405.69
2023-03-27T09:29:50.692Z,99408.7
2023-03-27T09:32:10.774Z,99405.67
2023-03-27T09:34:15.908Z,99413.98
2023-03-27T09:36:20.950Z,99414.55
2023-03-27T09:38:26.137Z,99424.63
2023-03-27T09:40:31.132Z,99424.36
2023-03-27T09:42:36.184Z,99426.55
2023-03-27T09:44:41.268Z,99436.96
2023-03-27T09:46:46.377Z,99440.39
2023-03-27T09:48:51.526Z,99441.86
2023-03-27T09:50:56.941Z,99450.38
2023-03-27T09:53:02.529Z,99453.64
2023-03-27T09:55:07.503Z,99464.06
2023-03-27T09:57:12.739Z,99453.33
2023-03-27T09:59:17.980Z,99457.55
2023-03-27T10:01:23.143Z,99463.16
2023-03-27T10:03:28.554Z,99459.72
2023-03-27T10:05:33.757Z,99464.59
2023-03-27T10:07:38.867Z,99468.84
2023-03-27T10:09:43.940Z,99462.87
2023-03-27T10:11:48.972Z,99474.45
2023-03-27T10:13:54.002Z,99471.42
2023-03-27T10:15:59.034Z,99476.41
2023-03-27T10:18:04.153Z,99481.57
2023-03-27T10:20:09.259Z,99486.7
2023-03-27T10:22:15.828Z,99489.83
2023-03-27T10:24:20.890Z,99493.45
2023-03-27T10:26:25.893Z,99505.25
2023-03-27T10:28:31.006Z,99507.85
2023-03-27T10:30:36.012Z,99510.23
2023-03-27T10:32:41.170Z,99508.22
2023-03-27T10:34:46.268Z,99506.75
2023-03-27T10:36:51.358Z,99516.27
2023-03-27T10:38:56.428Z,99524.84
2023-03-27T10:41:01.361Z,99523.81
2023-03-27T10:43:06.432Z,99522.17
2023-03-27T10:45:11.886Z,99520.75
2023-03-27T10:47:16.889Z,99522.48
2023-03-27T10:49:21.887Z,99525.17
2023-03-27T10:51:45.812Z,99523.75
2023-03-27T10:53:52.089Z,99528.92
2023-03-27T10:55:57.410Z,99543.8
2023-03-27T10:58:02.536Z,99539.57
2023-03-27T11:00:07.541Z,99538.38
2023-03-27T11:02:12.536Z,99536.41
2023-03-27T11:04:17.654Z,99536.16
2023-03-27T11:06:22.686Z,99531.74
2023-03-27T11:08:27.698Z,99534.41
2023-03-27T11:10:32.674Z,99535.85
2023-03-27T11:12:37.729Z,99543.8
2023-03-27T11:14:42.807Z,99540.63
2023-03-27T11:16:47.851Z,99537.53
2023-03-27T11:18:53.524Z,99539.89
2023-03-27T11:20:58.905Z,99544.7
2023-03-27T11:23:03.982Z,99546.94
2023-03-27T11:25:09.054Z,99548.33
2023-03-27T11:27:15.954Z,99550.97
2023-03-27T11:29:20.998Z,99554.78
2023-03-27T11:31:26.121Z,99556.48
2023-03-27T11:33:33.679Z,99560
2023-03-27T11:35:38.853Z,99560.79
2023-03-27T11:37:44.058Z,99560.11
2023-03-27T11:39:49.065Z,99557.59
2023-03-27T11:41:54.140Z,99566.02
2023-03-27T11:43:59.179Z,99559.7
2023-03-27T11:46:04.274Z,99556.23
2023-03-27T11:48:12.261Z,99562.6
2023-03-27T11:50:17.382Z,99571.53
2023-03-27T11:52:22.807Z,99572.02
2023-03-27T11:54:27.894Z,99568.02
2023-03-27T11:56:32.939Z,99567.36
2023-03-27T11:58:37.979Z,99565.95
2023-03-27T12:00:43.017Z,99570.63
2023-03-27T12:02:48.489Z,99578.33
2023-03-27T12:04:53.760Z,99581.51
2023-03-27T12:07:06.042Z,99577.38
2023-03-27T12:09:15.583Z,99579.04
2023-03-27T12:11:20.613Z,99571.94
2023-03-27T12:13:42.201Z,99580.5
2023-03-27T12:15:51.640Z,99577.33
2023-03-27T12:17:56.749Z,99579.55
2023-03-27T12:20:02.116Z,99575.46
2023-03-27T12:22:24.679Z,99578.73
2023-03-27T12:24:29.813Z,99572.41
2023-03-27T12:26:34.794Z,99564.48
2023-03-27T12:28:42.238Z,99568.92
2023-03-27T12:30:47.230Z,99573.19
2023-03-27T12:32:55.440Z,99563.82
2023-03-27T12:35:03.907Z,99568.81
2023-03-27T12:37:08.976Z,99575.45
2023-03-27T12:39:14.118Z,99570.83
2023-03-27T12:41:19.122Z,99580.38
2023-03-27T12:43:24.216Z,99580.07
2023-03-27T12:45:29.292Z,99568.1
2023-03-27T12:47:35.736Z,99575.28
2023-03-27T12:49:48.656Z,99573.55
2023-03-27T12:51:53.849Z,99580.17
2023-03-27T12:53:59.138Z,99587.98
2023-03-27T12:56:04.274Z,99596.14
2023-03-27T12:58:09.620Z,99608.06
2023-03-27T13:00:14.933Z,99605.59
2023-03-27T13:02:20.083Z,99611.63
2023-03-27T13:04:25.331Z,99612.56
2023-03-27T13:06:30.617Z,99608.57
2023-03-27T13:08:35.585Z,99609.64
2023-03-27T13:10:40.674Z,99623.16
2023-03-27T13:12:46.506Z,99614.41
2023-03-27T13:14:51.580Z,99625.34
2023-03-27T13:16:56.619Z,99623.98
2023-03-27T13:19:01.709Z,99632.2
2023-03-27T13:21:06.799Z,99633.77
2023-03-27T13:23:11.839Z,99626.16
2023-03-27T13:25:16.905Z,99624.05
2023-03-27T13:27:22.005Z,99622.41
2023-03-27T13:29:27.084Z,99618.78
2023-03-27T13:31:32.234Z,99622.34
2023-03-27T13:33:37.467Z,99626.59
2023-03-27T13:35:42.620Z,99625.56
2023-03-27T13:37:47.812Z,99631.62
2023-03-27T13:39:52.849Z,99632.88
2023-03-27T13:41:59.323Z,99621.3
2023-03-27T13:44:06.349Z,99631.41
2023-03-27T13:46:11.413Z,99626.8
2023-03-27T13:48:16.495Z,99628.88
2023-03-27T13:50:21.565Z,99633.22
2023-03-27T13:52:26.562Z,99627.19
2023-03-27T13:54:31.561Z,99622.45
2023-03-27T13:56:36.681Z,99618.36
2023-03-27T13:58:41.730Z,99624.72
2023-03-27T14:00:47.049Z,99627.23
2023-03-27T14:02:52.197Z,99633.2
2023-03-27T14:04:57.484Z,99641.81
2023-03-27T14:07:02.635Z,99642.99
2023-03-27T14:09:07.632Z,99657.78
2023-03-27T14:11:12.695Z,99648.49
2023-03-27T14:13:17.786Z,99653.96
2023-03-27T14:15:22.947Z,99648.97
2023-03-27T14:17:28.115Z,99657.29
2023-03-27T14:19:33.288Z,99658.38
2023-03-27T14:21:40.331Z,99659.78
2023-03-27T14:23:45.361Z,99659.59
2023-03-27T14:25:50.544Z,99656.56
2023-03-27T14:27:55.551Z,99657.67
2023-03-27T14:30:00.545Z,99660.91
2023-03-27T14:32:05.809Z,99670.16
2023-03-27T14:34:11.257Z,99664.7
2023-03-27T14:36:16.318Z,99674.23
2023-03-27T14:38:21.360Z,99670.9
2023-03-27T14:40:26.434Z,99670.91
2023-03-27T14:42:34.337Z,99679.66
2023-03-27T14:44:39.515Z,99653.94
2023-03-27T14:46:44.534Z,99689.14
2023-03-27T14:48:49.563Z,99697.11
2023-03-27T14:50:54.696Z,99706.61
2023-03-27T14:53:00.410Z,99711.52
2023-03-27T14:55:05.481Z,99695.78
2023-03-27T14:57:10.775Z,99710.99
2023-03-27T14:59:15.838Z,99706.42
2023-03-27T15:01:21.033Z,99708.55
2023-03-27T15:03:26.404Z,99706.07
2023-03-27T15:05:31.917Z,99713.7
2023-03-27T15:07:36.937Z,99723.59
2023-03-27T15:09:42.023Z,99728.7
2023-03-27T15:11:47.093Z,99716.03
2023-03-27T15:13:52.092Z,99740.36
2023-03-27T15:15:57.583Z,99739.32
2023-03-27T15:18:03.337Z,99749.52
2023-03-27T15:20:08.512Z,99745.27
2023-03-27T15:22:13.621Z,99747.8
2023-03-27T15:24:18.805Z,99747.91
2023-03-27T15:26:23.966Z,99752.63
2023-03-27T15:28:29.031Z,99755.55
2023-03-27T15:30:34.057Z,99760.44
2023-03-27T15:32:39.339Z,99758.22
2023-03-27T15:34:44.490Z,99776.36
2023-03-27T15:36:49.512Z,99763.19
2023-03-27T15:38:54.499Z,99764.45
2023-03-27T15:40:59.520Z,99772.05
2023-03-27T15:43:04.672Z,99774.33
2023-03-27T15:45:09.667Z,99772.62
2023-03-27T15:47:14.654Z,99770.23
2023-03-27T15:49:19.767Z,99777.35
2023-03-27T15:51:24.902Z,99778.66
2023-03-27T15:53:29.896Z,99785.14
2023-03-27T15:55:34.887Z,99783.17
2023-03-27T15:57:40.059Z,99778.9
2023-03-27T15:59:54.227Z,99800.73
2023-03-27T16:01:59.475Z,99810.59
2023-03-27T16:04:06.413Z,99809.33
2023-03-27T16:06:11.655Z,99816.61
2023-03-27T16:08:16.782Z,99817.05
2023-03-27T16:10:21.732Z,99823.58
2023-03-27T16:12:26.742Z,99823.27
2023-03-27T16:14:31.900Z,99836.19
2023-03-27T16:16:37.065Z,99841.66
2023-03-27T16:18:42.252Z,99833.63
2023-03-27T16:20:47.310Z,99833.47
2023-03-27T16:22:52.334Z,99834.12
2023-03-27T16:24:57.401Z,99839.2
2023-03-27T16:27:02.509Z,99843.19
2023-03-27T16:29:07.487Z,99845.08
2023-03-27T16:31:12.618Z,99846.37
2023-03-27T16:33:18.217Z,99850.31
2023-03-27T16:35:23.440Z,99851.52
2023-03-27T16:37:28.602Z,99852.1
2023-03-27T16:39:33.583Z,99853.05
2023-03-27T16:41:39.554Z,99858.75
2023-03-27T16:43:44.714Z,99857.3
2023-03-27T16:45:49.827Z,99858.88
2023-03-27T16:47:55.172Z,99862.78
2023-03-27T16:50:12.593Z,99864.98
2023-03-27T16:52:17.860Z,99869.58
2023-03-27T16:54:22.852Z,99879.52
2023-03-27T16:56:27.882Z,99879.23
2023-03-27T16:58:32.949Z,99887.32
2023-03-27T17:00:37.954Z,99889.13
2023-03-27T17:02:43.081Z,99889.38
2023-03-27T17:04:48.683Z,99891.16
2023-03-27T17:06:53.938Z,99888.52
2023-03-27T17:08:58.910Z,99896.7
2023-03-27T17:11:03.953Z,99895.04
2023-03-27T17:13:09.078Z,99899.93
2023-03-27T17:15:14.289Z,99906.45
2023-03-27T17:17:19.463Z,99906.63
2023-03-27T17:19:24.489Z,99909.55
2023-03-27T17:21:29.414Z,99912.23
2023-03-27T17:23:34.387Z,99915.31
2023-03-27T17:25:39.305Z,99915.73
2023-03-27T17:27:44.355Z,99923.18
2023-03-27T17:29:49.402Z,99926.55
2023-03-27T17:31:54.439Z,99931.5
2023-03-27T17:33:59.446Z,99927.04
2023-03-27T17:36:04.560Z,99933.2
2023-03-27T17:38:09.676Z,99932.51
2023-03-27T17:40:14.774Z,99936.33
2023-03-27T17:42:19.820Z,99937.84
2023-03-27T17:44:24.962Z,99940.8
2023-03-27T17:46:30.231Z,99942.53
2023-03-27T17:48:35.339Z,99946.36
2023-03-27T17:50:40.462Z,99945.16
2023-03-27T17:52:45.560Z,99950.92
2023-03-27T17:54:50.645Z,99950.42
2023-03-27T17:56:55.781Z,99948.5
2023-03-27T17:59:00.860Z,99950.89
2023-03-27T18:01:05.946Z,99955.66
2023-03-27T18:03:11.046Z,99960.93
2023-03-27T18:05:17.259Z,99959.5
2023-03-27T18:07:22.346Z,99957.52
2023-03-27T18:09:27.420Z,99958.8
2023-03-27T18:11:33.902Z,99966.63
2023-03-27T18:13:38.945Z,99974.97
2023-03-27T18:15:44.132Z,99975.97
2023-03-27T18:17:49.350Z,99976.02
2023-03-27T18:19:54.470Z,99981.55
2023-03-27T18:21:59.509Z,99987.59
2023-03-27T18:24:04.513Z,99987.71
2023-03-27T18:26:09.754Z,100002.75
2023-03-27T18:28:14.797Z,99991.42
2023-03-27T18:30:19.790Z,99993.38
2023-03-27T18:32:24.974Z,99989.98
2023-03-27T18:34:30.322Z,100003.01
2023-03-27T18:36:35.399Z,100001.2
2023-03-27T18:38:40.691Z,100003.1
2023-03-27T18:40:46.197Z,100001.87
2023-03-27T18:42:51.420Z,100000.78
2023-03-27T18:44:56.736Z,100002.45
2023-03-27T18:47:01.773Z,100004.97
2023-03-27T18:49:25.147Z,100003.77
2023-03-27T18:51:30.346Z,99993.23
2023-03-27T18:53:35.393Z,99997.52
2023-03-27T18:55:40.546Z,99997.08
2023-03-27T18:57:45.613Z,99994.02
2023-03-27T18:59:50.715Z,99993.73
2023-03-27T19:01:55.880Z,99993.83
2023-03-27T19:04:01.110Z,99993.22
2023-03-27T19:06:06.133Z,100008.09
2023-03-27T19:08:11.149Z,99999.44
2023-03-27T19:10:16.266Z,100002.03
2023-03-27T19:12:21.345Z,100004.77
2023-03-27T19:14:26.371Z,100002.28
2023-03-27T19:16:31.608Z,100005.44
2023-03-27T19:18:36.840Z,100005.63
2023-03-27T19:20:41.883Z,100013.08
2023-03-27T19:22:46.963Z,100011.88
2023-03-27T19:24:52.000Z,100006.59
2023-03-27T19:26:57.027Z,100009.88
2023-03-27T19:29:02.068Z,100011.52
2023-03-27T19:31:07.257Z,100013.77
2023-03-27T19:33:12.726Z,100017.9
2023-03-27T19:35:17.782Z,100035.76
2023-03-27T19:37:22.895Z,100023.69
2023-03-27T19:39:27.917Z,100021.67
2023-03-27T19:41:33.089Z,100023.59
2023-03-27T19:43:38.156Z,100021.47
2023-03-27T19:45:43.268Z,100022.52
2023-03-27T19:47:48.459Z,100020.7
2023-03-27T19:49:53.812Z,100031.56
2023-03-27T19:51:58.922Z,100034.64
2023-03-27T19:54:03.984Z,100038.17
2023-03-27T19:56:09.024Z,100036.17
2023-03-27T19:58:14.212Z,100029.85
2023-03-27T20:00:19.277Z,100036.3
2023-03-27T20:02:24.504Z,100035.05
2023-03-27T20:04:29.779Z,100038.64
2023-03-27T20:06:34.956Z,100038.63
2023-03-27T20:08:40.098Z,100039.28
2023-03-27T20:10:45.192Z,100036.55
2023-03-27T20:12:50.411Z,100037.83
2023-03-27T20:15:12.772Z,100039.13
2023-03-27T20:17:27.439Z,100037.3
2023-03-27T20:19:33.349Z,100037.75
2023-03-27T20:21:38.416Z,100036.44
2023-03-27T20:23:43.547Z,100039.58
2023-03-27T20:25:48.686Z,100039.22
2023-03-27T20:27:53.754Z,100041.55
2023-03-27T20:29:58.798Z,100037.58
2023-03-27T20:32:03.869Z,100026.45
2023-03-27T20:34:12.658Z,100026.82
2023-03-27T20:36:17.978Z,100027.58
2023-03-27T20:38:23.134Z,100023.87
2023-03-27T20:40:28.291Z,100016.78
2023-03-27T20:42:40.878Z,100014.48
2023-03-27T20:44:45.924Z,100011.72
2023-03-27T20:46:52.254Z,100007.36
2023-03-27T20:49:00.722Z,100006.56
2023-03-27T20:51:05.775Z,100008.75
2023-03-27T20:53:10.876Z,100005.68
2023-03-27T20:57:43.397Z,100005.39
2023-03-27T20:59:49.079Z,100006.23
2023-03-27T21:01:54.284Z,100008.2
2023-03-27T21:04:00.003Z,100007
2023-03-27T21:06:05.105Z,100008.35
2023-03-27T21:08:10.136Z,100008.81
2023-03-27T21:10:15.192Z,100011.94
2023-03-27T21:12:20.228Z,100004.84
2023-03-27T21:14:25.345Z,100013.97
2023-03-27T21:16:30.537Z,100009.6
2023-03-27T21:18:35.772Z,100007.95
2023-03-27T21:20:40.842Z,100007.65
2023-03-27T21:22:45.916Z,100009.27
2023-03-27T21:24:50.995Z,100011.17
2023-03-27T21:26:56.066Z,100009.84
2023-03-27T21:29:01.221Z,100010.75
2023-03-27T21:31:06.333Z,100004.23
2023-03-27T21:33:11.377Z,100003.31
2023-03-27T21:35:16.492Z,100005.11
2023-03-27T21:37:21.612Z,99999.38
2023-03-27T21:39:26.765Z,99999.89
2023-03-27T21:41:31.886Z,99997.16
2023-03-27T21:43:36.948Z,99997.55
2023-03-27T21:45:42.108Z,99998.28
2023-03-27T21:47:49.198Z,99994.16
2023-03-27T21:49:54.283Z,99996.88
2023-03-27T21:51:59.297Z,99992.46
2023-03-27T21:54:04.278Z,99992.32
2023-03-27T21:56:09.288Z,99991.13
2023-03-27T21:58:14.335Z,99996.01
2023-03-27T22:00:19.332Z,99994.08
2023-03-27T22:02:24.503Z,99997.82
2023-03-27T22:04:29.690Z,99984.38
2023-03-27T22:06:34.784Z,99982.33
2023-03-27T22:08:39.866Z,99976.77
2023-03-27T22:10:45.082Z,99977.63
2023-03-27T22:12:50.072Z,99984.14
2023-03-27T22:14:55.158Z,99979.34
2023-03-27T22:17:00.339Z,99975.13
2023-03-27T22:19:05.336Z,99983.57
2023-03-27T22:21:10.351Z,99982.08
2023-03-27T22:23:15.381Z,99978.23
2023-03-27T22:25:20.436Z,99985.23
2023-03-27T22:27:25.432Z,99981.72
2023-03-27T22:29:30.538Z,99984.36
2023-03-27T22:31:35.600Z,99991.34
2023-03-27T22:33:40.759Z,99988.2
2023-03-27T22:35:45.874Z,99988.52
2023-03-27T22:37:50.918Z,99993.8
2023-03-27T22:39:55.906Z,99994.24
2023-03-27T22:42:01.088Z,99991.11
2023-03-27T22:44:06.095Z,99991.64
2023-03-27T22:46:11.253Z,99994.77
2023-03-27T22:48:16.300Z,99988.08
2023-03-27T22:50:21.423Z,99988.92
2023-03-27T22:52:26.479Z,99992.68
2023-03-27T22:54:31.523Z,99990.31
2023-03-27T22:56:36.569Z,99988.53
2023-03-27T22:58:41.651Z,99982.66
2023-03-27T23:00:46.726Z,99989.61
2023-03-27T23:02:51.895Z,99984.27
2023-03-27T23:04:57.096Z,99978.61
2023-03-27T23:07:02.119Z,100002.05
2023-03-27T23:09:07.201Z,100007.13
2023-03-27T23:11:12.193Z,100006.83
2023-03-27T23:13:17.381Z,100007.4
2023-03-27T23:15:31.707Z,100010.95
2023-03-27T23:17:36.943Z,100012.58
2023-03-27T23:19:42.159Z,99999.56
2023-03-27T23:21:47.177Z,100003.79
2023-03-27T23:23:52.218Z,100018.83
2023-03-27T23:25:58.047Z,100022.95
2023-03-27T23:28:03.795Z,100013.27
2023-03-27T23:30:08.853Z,100012.69
2023-03-27T23:32:14.022Z,100013.57
2023-03-27T23:34:19.168Z,100009.69
2023-03-27T23:36:24.200Z,100005.91
2023-03-27T23:38:29.250Z,100004.48
2023-03-27T23:40:35.933Z,100006.53
2023-03-27T23:42:40.998Z,100002.13
2023-03-27T23:44:46.215Z,100010.19
2023-03-27T23:46:51.240Z,99999.71
2023-03-27T23:48:56.403Z,100001.12
2023-03-27T23:51:01.454Z,100004.63
2023-03-27T23:53:06.524Z,99999.05
2023-03-27T23:55:11.566Z,99995.94
2023-03-27T23:57:16.634Z,99995.53
2023-03-27T23:59:21.828Z,99992.84
